sensor_id;sensor_type;location;lat;lon;timestamp;P1;durP1;ratioP1;P2;durP2;ratioP2
19747;SDS011;10032;51.386;12.516;2023-03-13T00:00:29;4.20;;;2.70;;
19747;SDS011;10032;51.386;12.516;2023-03-13T00:02:55;3.53;;;2.73;;
19747;SDS011;10032;51.386;12.516;2023-03-13T00:05:20;4.53;;;2.87;;
19747;SDS011;10032;51.386;12.516;2023-03-13T00:07:45;5.40;;;3.13;;
19747;SDS011;10032;51.386;12.516;2023-03-13T00:10:11;6.20;;;2.67;;
19747;SDS011;10032;51.386;12.516;2023-03-13T00:12:36;4.13;;;2.60;;
19747;SDS011;10032;51.386;12.516;2023-03-13T00:15:02;5.73;;;3.83;;
19747;SDS011;10032;51.386;12.516;2023-03-13T00:17:27;6.03;;;3.43;;
19747;SDS011;10032;51.386;12.516;2023-03-13T00:19:53;4.77;;;3.00;;
19747;SDS011;10032;51.386;12.516;2023-03-13T00:22:19;4.53;;;2.30;;
19747;SDS011;10032;51.386;12.516;2023-03-13T00:24:45;6.77;;;2.27;;
19747;SDS011;10032;51.386;12.516;2023-03-13T00:27:10;5.67;;;3.20;;
19747;SDS011;10032;51.386;12.516;2023-03-13T00:29:36;3.87;;;2.57;;
19747;SDS011;10032;51.386;12.516;2023-03-13T00:32:02;5.73;;;3.33;;
19747;SDS011;10032;51.386;12.516;2023-03-13T00:34:27;10.33;;;3.57;;
19747;SDS011;10032;51.386;12.516;2023-03-13T00:36:53;7.60;;;2.70;;
19747;SDS011;10032;51.386;12.516;2023-03-13T00:39:20;5.80;;;3.10;;
19747;SDS011;10032;51.386;12.516;2023-03-13T00:41:45;6.27;;;3.40;;
19747;SDS011;10032;51.386;12.516;2023-03-13T00:44:11;5.70;;;2.90;;
19747;SDS011;10032;51.386;12.516;2023-03-13T00:46:37;8.07;;;3.77;;
19747;SDS011;10032;51.386;12.516;2023-03-13T00:49:03;4.10;;;3.03;;
19747;SDS011;10032;51.386;12.516;2023-03-13T00:51:29;6.30;;;3.43;;
19747;SDS011;10032;51.386;12.516;2023-03-13T00:53:55;4.07;;;2.70;;
19747;SDS011;10032;51.386;12.516;2023-03-13T00:56:24;4.83;;;3.07;;
19747;SDS011;10032;51.386;12.516;2023-03-13T00:58:49;7.43;;;3.13;;
19747;SDS011;10032;51.386;12.516;2023-03-13T01:01:17;7.70;;;2.50;;
19747;SDS011;10032;51.386;12.516;2023-03-13T01:03:48;4.53;;;3.00;;
19747;SDS011;10032;51.386;12.516;2023-03-13T01:06:16;7.63;;;2.60;;
19747;SDS011;10032;51.386;12.516;2023-03-13T01:08:44;12.97;;;3.03;;
19747;SDS011;10032;51.386;12.516;2023-03-13T01:11:14;3.97;;;2.30;;
19747;SDS011;10032;51.386;12.516;2023-03-13T01:13:48;6.73;;;3.00;;
19747;SDS011;10032;51.386;12.516;2023-03-13T01:16:18;5.30;;;2.33;;
19747;SDS011;10032;51.386;12.516;2023-03-13T01:18:45;4.40;;;2.70;;
19747;SDS011;10032;51.386;12.516;2023-03-13T01:21:15;2.80;;;2.17;;
19747;SDS011;10032;51.386;12.516;2023-03-13T01:23:43;6.70;;;3.17;;
19747;SDS011;10032;51.386;12.516;2023-03-13T01:26:09;8.90;;;3.23;;
19747;SDS011;10032;51.386;12.516;2023-03-13T01:28:35;3.90;;;2.47;;
19747;SDS011;10032;51.386;12.516;2023-03-13T01:31:09;6.90;;;2.90;;
19747;SDS011;10032;51.386;12.516;2023-03-13T01:33:35;6.53;;;2.67;;
19747;SDS011;10032;51.386;12.516;2023-03-13T01:36:01;5.00;;;2.70;;
19747;SDS011;10032;51.386;12.516;2023-03-13T01:38:27;6.50;;;2.70;;
19747;SDS011;10032;51.386;12.516;2023-03-13T01:40:52;8.83;;;3.27;;
19747;SDS011;10032;51.386;12.516;2023-03-13T01:48:18;7.20;;;3.30;;
19747;SDS011;10032;51.386;12.516;2023-03-13T01:50:46;4.53;;;3.40;;
19747;SDS011;10032;51.386;12.516;2023-03-13T01:53:11;8.63;;;4.10;;
19747;SDS011;10032;51.386;12.516;2023-03-13T01:55:37;6.43;;;3.37;;
19747;SDS011;10032;51.386;12.516;2023-03-13T01:58:03;5.03;;;3.03;;
19747;SDS011;10032;51.386;12.516;2023-03-13T02:00:29;6.00;;;2.90;;
19747;SDS011;10032;51.386;12.516;2023-03-13T02:02:59;7.43;;;3.50;;
19747;SDS011;10032;51.386;12.516;2023-03-13T02:05:28;5.73;;;2.67;;
19747;SDS011;10032;51.386;12.516;2023-03-13T02:10:37;7.90;;;3.17;;
19747;SDS011;10032;51.386;12.516;2023-03-13T02:13:06;12.10;;;3.70;;
19747;SDS011;10032;51.386;12.516;2023-03-13T02:15:31;6.63;;;2.70;;
19747;SDS011;10032;51.386;12.516;2023-03-13T02:17:58;6.77;;;2.93;;
19747;SDS011;10032;51.386;12.516;2023-03-13T02:20:24;6.07;;;3.00;;
19747;SDS011;10032;51.386;12.516;2023-03-13T02:23:06;8.90;;;3.60;;
19747;SDS011;10032;51.386;12.516;2023-03-13T02:25:41;5.93;;;2.60;;
19747;SDS011;10032;51.386;12.516;2023-03-13T02:28:10;5.80;;;2.60;;
19747;SDS011;10032;51.386;12.516;2023-03-13T02:30:58;5.07;;;2.77;;
19747;SDS011;10032;51.386;12.516;2023-03-13T02:33:25;11.53;;;3.33;;
19747;SDS011;10032;51.386;12.516;2023-03-13T02:35:54;7.80;;;3.60;;
19747;SDS011;10032;51.386;12.516;2023-03-13T02:38:21;5.30;;;2.33;;
19747;SDS011;10032;51.386;12.516;2023-03-13T02:40:49;6.90;;;2.80;;
19747;SDS011;10032;51.386;12.516;2023-03-13T02:43:20;4.03;;;2.50;;
19747;SDS011;10032;51.386;12.516;2023-03-13T02:45:59;5.57;;;2.97;;
19747;SDS011;10032;51.386;12.516;2023-03-13T02:48:29;4.30;;;2.40;;
19747;SDS011;10032;51.386;12.516;2023-03-13T02:51:11;7.00;;;2.50;;
19747;SDS011;10032;51.386;12.516;2023-03-13T02:53:37;5.20;;;2.93;;
19747;SDS011;10032;51.386;12.516;2023-03-13T02:56:03;5.73;;;2.53;;
19747;SDS011;10032;51.386;12.516;2023-03-13T02:58:34;8.83;;;2.50;;
19747;SDS011;10032;51.386;12.516;2023-03-13T03:01:02;5.93;;;2.77;;
19747;SDS011;10032;51.386;12.516;2023-03-13T03:03:32;8.97;;;2.80;;
19747;SDS011;10032;51.386;12.516;2023-03-13T03:05:59;6.30;;;3.17;;
19747;SDS011;10032;51.386;12.516;2023-03-13T03:08:24;9.20;;;2.90;;
19747;SDS011;10032;51.386;12.516;2023-03-13T03:10:50;13.27;;;4.10;;
19747;SDS011;10032;51.386;12.516;2023-03-13T03:13:15;9.10;;;2.80;;
19747;SDS011;10032;51.386;12.516;2023-03-13T03:15:40;14.67;;;3.80;;
19747;SDS011;10032;51.386;12.516;2023-03-13T03:18:06;7.47;;;2.47;;
19747;SDS011;10032;51.386;12.516;2023-03-13T03:20:31;11.43;;;3.63;;
19747;SDS011;10032;51.386;12.516;2023-03-13T03:22:57;9.23;;;3.27;;
19747;SDS011;10032;51.386;12.516;2023-03-13T03:25:22;6.90;;;2.90;;
19747;SDS011;10032;51.386;12.516;2023-03-13T03:27:47;8.50;;;3.60;;
19747;SDS011;10032;51.386;12.516;2023-03-13T03:30:13;5.33;;;2.70;;
19747;SDS011;10032;51.386;12.516;2023-03-13T03:32:39;8.90;;;3.07;;
19747;SDS011;10032;51.386;12.516;2023-03-13T03:35:05;5.40;;;2.20;;
19747;SDS011;10032;51.386;12.516;2023-03-13T03:37:31;4.93;;;2.57;;
19747;SDS011;10032;51.386;12.516;2023-03-13T03:39:56;8.73;;;3.27;;
19747;SDS011;10032;51.386;12.516;2023-03-13T03:42:22;11.50;;;3.73;;
19747;SDS011;10032;51.386;12.516;2023-03-13T03:44:47;6.97;;;3.57;;
19747;SDS011;10032;51.386;12.516;2023-03-13T03:47:13;9.90;;;3.07;;
19747;SDS011;10032;51.386;12.516;2023-03-13T03:49:38;4.90;;;2.77;;
19747;SDS011;10032;51.386;12.516;2023-03-13T03:52:04;5.57;;;2.40;;
19747;SDS011;10032;51.386;12.516;2023-03-13T03:54:30;5.83;;;2.47;;
19747;SDS011;10032;51.386;12.516;2023-03-13T03:56:55;5.70;;;2.10;;
19747;SDS011;10032;51.386;12.516;2023-03-13T03:59:21;13.27;;;4.37;;
19747;SDS011;10032;51.386;12.516;2023-03-13T04:01:46;7.00;;;2.90;;
19747;SDS011;10032;51.386;12.516;2023-03-13T04:04:11;10.33;;;3.10;;
19747;SDS011;10032;51.386;12.516;2023-03-13T04:06:37;9.77;;;2.77;;
19747;SDS011;10032;51.386;12.516;2023-03-13T04:09:02;5.57;;;2.23;;
19747;SDS011;10032;51.386;12.516;2023-03-13T04:11:29;7.80;;;2.73;;
19747;SDS011;10032;51.386;12.516;2023-03-13T04:13:54;10.10;;;3.30;;
19747;SDS011;10032;51.386;12.516;2023-03-13T04:16:20;8.30;;;2.80;;
19747;SDS011;10032;51.386;12.516;2023-03-13T04:18:45;8.67;;;2.40;;
19747;SDS011;10032;51.386;12.516;2023-03-13T04:21:11;7.17;;;2.30;;
19747;SDS011;10032;51.386;12.516;2023-03-13T04:23:36;9.50;;;2.40;;
19747;SDS011;10032;51.386;12.516;2023-03-13T04:26:01;6.33;;;2.50;;
19747;SDS011;10032;51.386;12.516;2023-03-13T04:28:27;5.53;;;2.00;;
19747;SDS011;10032;51.386;12.516;2023-03-13T04:30:52;5.17;;;2.27;;
19747;SDS011;10032;51.386;12.516;2023-03-13T04:33:21;5.93;;;2.93;;
19747;SDS011;10032;51.386;12.516;2023-03-13T04:35:47;4.60;;;2.30;;
19747;SDS011;10032;51.386;12.516;2023-03-13T04:38:13;6.77;;;2.40;;
19747;SDS011;10032;51.386;12.516;2023-03-13T04:40:38;6.27;;;3.17;;
19747;SDS011;10032;51.386;12.516;2023-03-13T04:43:03;7.27;;;3.60;;
19747;SDS011;10032;51.386;12.516;2023-03-13T04:45:29;9.40;;;2.47;;
19747;SDS011;10032;51.386;12.516;2023-03-13T04:47:54;7.73;;;3.13;;
19747;SDS011;10032;51.386;12.516;2023-03-13T04:50:20;5.53;;;3.07;;
19747;SDS011;10032;51.386;12.516;2023-03-13T04:52:45;7.30;;;2.30;;
19747;SDS011;10032;51.386;12.516;2023-03-13T04:55:10;4.87;;;2.13;;
19747;SDS011;10032;51.386;12.516;2023-03-13T04:57:36;6.77;;;2.37;;
19747;SDS011;10032;51.386;12.516;2023-03-13T05:00:02;7.70;;;2.70;;
19747;SDS011;10032;51.386;12.516;2023-03-13T05:02:31;4.83;;;2.97;;
19747;SDS011;10032;51.386;12.516;2023-03-13T05:04:57;6.33;;;2.90;;
19747;SDS011;10032;51.386;12.516;2023-03-13T05:07:22;7.10;;;2.47;;
19747;SDS011;10032;51.386;12.516;2023-03-13T05:09:48;9.23;;;3.37;;
19747;SDS011;10032;51.386;12.516;2023-03-13T05:12:13;5.90;;;2.63;;
19747;SDS011;10032;51.386;12.516;2023-03-13T05:14:39;5.13;;;2.40;;
19747;SDS011;10032;51.386;12.516;2023-03-13T05:17:04;4.07;;;2.00;;
19747;SDS011;10032;51.386;12.516;2023-03-13T05:19:29;7.10;;;2.50;;
19747;SDS011;10032;51.386;12.516;2023-03-13T05:21:55;6.50;;;3.80;;
19747;SDS011;10032;51.386;12.516;2023-03-13T05:24:20;6.23;;;2.40;;
19747;SDS011;10032;51.386;12.516;2023-03-13T05:26:46;7.13;;;3.37;;
19747;SDS011;10032;51.386;12.516;2023-03-13T05:29:11;6.47;;;2.50;;
19747;SDS011;10032;51.386;12.516;2023-03-13T05:31:36;6.20;;;2.00;;
19747;SDS011;10032;51.386;12.516;2023-03-13T05:34:02;10.20;;;2.17;;
19747;SDS011;10032;51.386;12.516;2023-03-13T05:36:27;10.37;;;3.27;;
19747;SDS011;10032;51.386;12.516;2023-03-13T05:38:52;7.17;;;3.23;;
19747;SDS011;10032;51.386;12.516;2023-03-13T05:41:18;9.87;;;3.60;;
19747;SDS011;10032;51.386;12.516;2023-03-13T05:43:43;5.87;;;3.03;;
19747;SDS011;10032;51.386;12.516;2023-03-13T05:46:09;5.67;;;2.20;;
19747;SDS011;10032;51.386;12.516;2023-03-13T05:48:34;4.70;;;2.23;;
19747;SDS011;10032;51.386;12.516;2023-03-13T05:51:00;5.43;;;2.50;;
19747;SDS011;10032;51.386;12.516;2023-03-13T05:53:25;8.07;;;2.20;;
19747;SDS011;10032;51.386;12.516;2023-03-13T05:55:50;3.70;;;2.37;;
19747;SDS011;10032;51.386;12.516;2023-03-13T05:58:16;4.83;;;2.30;;
19747;SDS011;10032;51.386;12.516;2023-03-13T06:00:41;9.13;;;3.33;;
19747;SDS011;10032;51.386;12.516;2023-03-13T06:03:07;6.50;;;2.67;;
19747;SDS011;10032;51.386;12.516;2023-03-13T06:05:33;9.10;;;3.30;;
19747;SDS011;10032;51.386;12.516;2023-03-13T06:07:59;10.30;;;3.10;;
19747;SDS011;10032;51.386;12.516;2023-03-13T06:10:27;7.03;;;2.43;;
19747;SDS011;10032;51.386;12.516;2023-03-13T06:12:53;6.53;;;2.60;;
19747;SDS011;10032;51.386;12.516;2023-03-13T06:15:20;6.13;;;2.23;;
19747;SDS011;10032;51.386;12.516;2023-03-13T06:17:46;8.17;;;2.20;;
19747;SDS011;10032;51.386;12.516;2023-03-13T06:20:11;4.50;;;2.17;;
19747;SDS011;10032;51.386;12.516;2023-03-13T06:22:37;5.80;;;2.47;;
19747;SDS011;10032;51.386;12.516;2023-03-13T06:25:02;4.57;;;2.70;;
19747;SDS011;10032;51.386;12.516;2023-03-13T06:27:28;4.50;;;2.23;;
19747;SDS011;10032;51.386;12.516;2023-03-13T06:29:53;3.67;;;2.23;;
19747;SDS011;10032;51.386;12.516;2023-03-13T06:32:19;6.57;;;2.30;;
19747;SDS011;10032;51.386;12.516;2023-03-13T06:34:44;5.70;;;2.50;;
19747;SDS011;10032;51.386;12.516;2023-03-13T06:37:10;9.97;;;2.83;;
19747;SDS011;10032;51.386;12.516;2023-03-13T06:39:35;7.80;;;3.03;;
19747;SDS011;10032;51.386;12.516;2023-03-13T06:42:01;9.50;;;2.37;;
19747;SDS011;10032;51.386;12.516;2023-03-13T06:44:26;4.27;;;2.20;;
19747;SDS011;10032;51.386;12.516;2023-03-13T06:46:51;7.23;;;2.83;;
19747;SDS011;10032;51.386;12.516;2023-03-13T06:49:17;10.97;;;2.90;;
19747;SDS011;10032;51.386;12.516;2023-03-13T06:51:42;3.73;;;2.30;;
19747;SDS011;10032;51.386;12.516;2023-03-13T06:54:08;7.70;;;2.50;;
19747;SDS011;10032;51.386;12.516;2023-03-13T06:56:33;7.80;;;2.60;;
19747;SDS011;10032;51.386;12.516;2023-03-13T06:58:58;4.43;;;2.63;;
19747;SDS011;10032;51.386;12.516;2023-03-13T07:01:24;9.10;;;3.23;;
19747;SDS011;10032;51.386;12.516;2023-03-13T07:03:49;5.33;;;2.70;;
19747;SDS011;10032;51.386;12.516;2023-03-13T07:06:15;8.03;;;3.00;;
19747;SDS011;10032;51.386;12.516;2023-03-13T07:08:42;3.80;;;2.20;;
19747;SDS011;10032;51.386;12.516;2023-03-13T07:11:08;4.67;;;2.60;;
19747;SDS011;10032;51.386;12.516;2023-03-13T07:13:35;4.33;;;2.20;;
19747;SDS011;10032;51.386;12.516;2023-03-13T07:16:02;3.70;;;2.10;;
19747;SDS011;10032;51.386;12.516;2023-03-13T07:18:28;8.70;;;2.70;;
19747;SDS011;10032;51.386;12.516;2023-03-13T07:20:54;4.13;;;1.93;;
19747;SDS011;10032;51.386;12.516;2023-03-13T07:23:22;3.50;;;2.00;;
19747;SDS011;10032;51.386;12.516;2023-03-13T07:25:52;4.93;;;2.60;;
19747;SDS011;10032;51.386;12.516;2023-03-13T07:28:23;4.17;;;2.30;;
19747;SDS011;10032;51.386;12.516;2023-03-13T07:30:49;7.13;;;2.30;;
19747;SDS011;10032;51.386;12.516;2023-03-13T07:33:15;6.87;;;2.30;;
19747;SDS011;10032;51.386;12.516;2023-03-13T07:35:46;2.80;;;1.90;;
19747;SDS011;10032;51.386;12.516;2023-03-13T07:38:15;5.43;;;2.00;;
19747;SDS011;10032;51.386;12.516;2023-03-13T07:40:52;4.43;;;2.30;;
19747;SDS011;10032;51.386;12.516;2023-03-13T07:43:19;6.93;;;1.60;;
19747;SDS011;10032;51.386;12.516;2023-03-13T07:46:04;3.00;;;1.87;;
19747;SDS011;10032;51.386;12.516;2023-03-13T07:48:31;5.27;;;2.30;;
19747;SDS011;10032;51.386;12.516;2023-03-13T07:50:58;4.23;;;2.47;;
19747;SDS011;10032;51.386;12.516;2023-03-13T07:53:25;4.50;;;2.30;;
19747;SDS011;10032;51.386;12.516;2023-03-13T07:55:54;4.83;;;2.13;;
19747;SDS011;10032;51.386;12.516;2023-03-13T07:58:20;3.73;;;2.30;;
19747;SDS011;10032;51.386;12.516;2023-03-13T08:00:46;3.00;;;1.70;;
19747;SDS011;10032;51.386;12.516;2023-03-13T08:03:12;4.80;;;2.13;;
19747;SDS011;10032;51.386;12.516;2023-03-13T08:05:38;3.17;;;1.80;;
19747;SDS011;10032;51.386;12.516;2023-03-13T08:08:03;1.37;;;1.10;;
19747;SDS011;10032;51.386;12.516;2023-03-13T08:10:29;2.03;;;1.57;;
19747;SDS011;10032;51.386;12.516;2023-03-13T08:12:55;1.83;;;1.07;;
19747;SDS011;10032;51.386;12.516;2023-03-13T08:15:20;1.50;;;1.20;;
19747;SDS011;10032;51.386;12.516;2023-03-13T08:17:50;2.13;;;1.53;;
19747;SDS011;10032;51.386;12.516;2023-03-13T08:20:16;2.10;;;1.20;;
19747;SDS011;10032;51.386;12.516;2023-03-13T08:22:43;1.07;;;0.97;;
19747;SDS011;10032;51.386;12.516;2023-03-13T08:25:10;2.87;;;1.10;;
19747;SDS011;10032;51.386;12.516;2023-03-13T08:27:36;1.57;;;1.13;;
19747;SDS011;10032;51.386;12.516;2023-03-13T08:30:02;0.97;;;0.90;;
19747;SDS011;10032;51.386;12.516;2023-03-13T08:32:28;1.40;;;1.30;;
19747;SDS011;10032;51.386;12.516;2023-03-13T08:34:53;3.53;;;1.33;;
19747;SDS011;10032;51.386;12.516;2023-03-13T08:37:19;1.87;;;1.27;;
19747;SDS011;10032;51.386;12.516;2023-03-13T08:39:44;1.33;;;1.23;;
19747;SDS011;10032;51.386;12.516;2023-03-13T08:42:10;2.40;;;1.40;;
19747;SDS011;10032;51.386;12.516;2023-03-13T08:44:38;1.17;;;1.00;;
19747;SDS011;10032;51.386;12.516;2023-03-13T08:47:04;1.20;;;1.10;;
19747;SDS011;10032;51.386;12.516;2023-03-13T08:49:31;2.20;;;0.97;;
19747;SDS011;10032;51.386;12.516;2023-03-13T08:51:56;1.20;;;1.10;;
19747;SDS011;10032;51.386;12.516;2023-03-13T08:54:21;1.03;;;0.93;;
19747;SDS011;10032;51.386;12.516;2023-03-13T08:56:47;1.33;;;1.20;;
19747;SDS011;10032;51.386;12.516;2023-03-13T08:59:12;0.93;;;0.70;;
19747;SDS011;10032;51.386;12.516;2023-03-13T09:01:39;1.80;;;1.07;;
19747;SDS011;10032;51.386;12.516;2023-03-13T09:04:05;0.90;;;0.90;;
19747;SDS011;10032;51.386;12.516;2023-03-13T09:06:35;2.30;;;1.27;;
19747;SDS011;10032;51.386;12.516;2023-03-13T09:09:02;1.20;;;1.10;;
19747;SDS011;10032;51.386;12.516;2023-03-13T09:11:29;2.90;;;1.10;;
19747;SDS011;10032;51.386;12.516;2023-03-13T09:13:55;0.90;;;0.90;;
19747;SDS011;10032;51.386;12.516;2023-03-13T09:16:23;1.20;;;1.00;;
19747;SDS011;10032;51.386;12.516;2023-03-13T09:18:54;1.33;;;0.83;;
19747;SDS011;10032;51.386;12.516;2023-03-13T09:21:22;1.33;;;0.70;;
19747;SDS011;10032;51.386;12.516;2023-03-13T09:23:50;0.97;;;0.93;;
19747;SDS011;10032;51.386;12.516;2023-03-13T09:26:16;2.57;;;1.00;;
19747;SDS011;10032;51.386;12.516;2023-03-13T09:28:43;1.50;;;0.70;;
19747;SDS011;10032;51.386;12.516;2023-03-13T09:31:15;1.20;;;1.10;;
19747;SDS011;10032;51.386;12.516;2023-03-13T09:33:42;0.90;;;0.87;;
19747;SDS011;10032;51.386;12.516;2023-03-13T09:36:09;1.03;;;0.90;;
19747;SDS011;10032;51.386;12.516;2023-03-13T09:38:36;2.40;;;1.00;;
19747;SDS011;10032;51.386;12.516;2023-03-13T09:41:49;2.57;;;1.33;;
19747;SDS011;10032;51.386;12.516;2023-03-13T09:46:48;1.10;;;0.97;;
19747;SDS011;10032;51.386;12.516;2023-03-13T09:49:29;1.53;;;0.97;;
19747;SDS011;10032;51.386;12.516;2023-03-13T09:57:31;1.87;;;1.17;;
19747;SDS011;10032;51.386;12.516;2023-03-13T10:00:00;1.60;;;1.50;;
19747;SDS011;10032;51.386;12.516;2023-03-13T10:02:39;1.37;;;1.23;;
19747;SDS011;10032;51.386;12.516;2023-03-13T10:05:22;2.97;;;2.47;;
19747;SDS011;10032;51.386;12.516;2023-03-13T10:07:50;4.30;;;3.60;;
19747;SDS011;10032;51.386;12.516;2023-03-13T10:10:28;2.70;;;2.50;;
19747;SDS011;10032;51.386;12.516;2023-03-13T10:13:09;2.97;;;2.50;;
19747;SDS011;10032;51.386;12.516;2023-03-13T10:15:49;2.93;;;2.63;;
19747;SDS011;10032;51.386;12.516;2023-03-13T10:18:21;1.73;;;1.63;;
19747;SDS011;10032;51.386;12.516;2023-03-13T10:20:52;4.50;;;2.60;;
19747;SDS011;10032;51.386;12.516;2023-03-13T10:23:25;2.80;;;1.97;;
19747;SDS011;10032;51.386;12.516;2023-03-13T10:25:58;4.10;;;2.33;;
19747;SDS011;10032;51.386;12.516;2023-03-13T10:28:24;2.20;;;1.33;;
19747;SDS011;10032;51.386;12.516;2023-03-13T10:30:50;3.90;;;1.93;;
19747;SDS011;10032;51.386;12.516;2023-03-13T10:33:27;1.50;;;1.20;;
19747;SDS011;10032;51.386;12.516;2023-03-13T10:36:01;4.30;;;2.80;;
19747;SDS011;10032;51.386;12.516;2023-03-13T10:38:33;4.07;;;2.07;;
19747;SDS011;10032;51.386;12.516;2023-03-13T10:44:02;2.77;;;2.10;;
19747;SDS011;10032;51.386;12.516;2023-03-13T10:46:30;3.60;;;2.87;;
19747;SDS011;10032;51.386;12.516;2023-03-13T10:48:59;1.83;;;1.70;;
19747;SDS011;10032;51.386;12.516;2023-03-13T10:51:35;1.20;;;1.10;;
19747;SDS011;10032;51.386;12.516;2023-03-13T10:54:13;1.20;;;0.80;;
19747;SDS011;10032;51.386;12.516;2023-03-13T10:56:41;2.20;;;1.10;;
19747;SDS011;10032;51.386;12.516;2023-03-13T10:59:25;1.10;;;1.00;;
19747;SDS011;10032;51.386;12.516;2023-03-13T11:01:52;1.40;;;0.60;;
19747;SDS011;10032;51.386;12.516;2023-03-13T11:06:57;1.07;;;0.97;;
19747;SDS011;10032;51.386;12.516;2023-03-13T11:09:26;2.10;;;1.00;;
19747;SDS011;10032;51.386;12.516;2023-03-13T11:11:53;0.70;;;0.70;;
19747;SDS011;10032;51.386;12.516;2023-03-13T11:14:21;1.07;;;1.00;;
19747;SDS011;10032;51.386;12.516;2023-03-13T11:16:55;0.63;;;0.63;;
19747;SDS011;10032;51.386;12.516;2023-03-13T11:36:01;1.60;;;0.90;;
19747;SDS011;10032;51.386;12.516;2023-03-13T11:38:39;1.10;;;1.07;;
19747;SDS011;10032;51.386;12.516;2023-03-13T11:41:20;0.80;;;0.80;;
19747;SDS011;10032;51.386;12.516;2023-03-13T11:49:23;0.80;;;0.80;;
19747;SDS011;10032;51.386;12.516;2023-03-13T11:57:20;1.92;;;1.73;;
19747;SDS011;10032;51.386;12.516;2023-03-13T12:05:29;1.33;;;1.00;;
19747;SDS011;10032;51.386;12.516;2023-03-13T12:08:03;1.30;;;1.05;;
19747;SDS011;10032;51.386;12.516;2023-03-13T12:10:37;2.20;;;1.60;;
19747;SDS011;10032;51.386;12.516;2023-03-13T12:13:24;1.73;;;1.58;;
19747;SDS011;10032;51.386;12.516;2023-03-13T12:15:56;2.08;;;1.98;;
19747;SDS011;10032;51.386;12.516;2023-03-13T12:18:35;1.35;;;1.13;;
19747;SDS011;10032;51.386;12.516;2023-03-13T12:21:10;3.10;;;1.88;;
19747;SDS011;10032;51.386;12.516;2023-03-13T12:24:11;1.20;;;1.10;;
19747;SDS011;10032;51.386;12.516;2023-03-13T12:26:40;1.92;;;1.70;;
19747;SDS011;10032;51.386;12.516;2023-03-13T12:29:16;1.80;;;1.70;;
19747;SDS011;10032;51.386;12.516;2023-03-13T12:31:47;1.92;;;1.63;;
19747;SDS011;10032;51.386;12.516;2023-03-13T12:34:26;2.80;;;2.45;;
19747;SDS011;10032;51.386;12.516;2023-03-13T12:37:17;2.25;;;1.83;;
19747;SDS011;10032;51.386;12.516;2023-03-13T12:43:30;2.10;;;1.48;;
19747;SDS011;10032;51.386;12.516;2023-03-13T12:45:50;1.40;;;0.90;;
19747;SDS011;10032;51.386;12.516;2023-03-13T13:01:29;1.00;;;0.90;;
19747;SDS011;10032;51.386;12.516;2023-03-13T13:03:59;1.45;;;1.35;;
19747;SDS011;10032;51.386;12.516;2023-03-13T13:06:48;1.35;;;1.25;;
19747;SDS011;10032;51.386;12.516;2023-03-13T13:09:36;2.28;;;1.92;;
19747;SDS011;10032;51.386;12.516;2023-03-13T13:12:24;1.23;;;1.10;;
19747;SDS011;10032;51.386;12.516;2023-03-13T13:17:38;3.28;;;1.38;;
19747;SDS011;10032;51.386;12.516;2023-03-13T13:29:04;1.35;;;1.25;;
19747;SDS011;10032;51.386;12.516;2023-03-13T13:36:52;1.27;;;1.00;;
19747;SDS011;10032;51.386;12.516;2023-03-13T13:39:38;1.30;;;1.20;;
19747;SDS011;10032;51.386;12.516;2023-03-13T13:47:44;1.85;;;1.23;;
19747;SDS011;10032;51.386;12.516;2023-03-13T13:50:25;1.10;;;0.77;;
19747;SDS011;10032;51.386;12.516;2023-03-13T13:52:53;1.27;;;1.17;;
19747;SDS011;10032;51.386;12.516;2023-03-13T13:55:58;1.30;;;1.20;;
19747;SDS011;10032;51.386;12.516;2023-03-13T13:58:27;1.40;;;1.20;;
19747;SDS011;10032;51.386;12.516;2023-03-13T14:01:01;0.90;;;0.90;;
19747;SDS011;10032;51.386;12.516;2023-03-13T14:03:36;1.23;;;0.98;;
19747;SDS011;10032;51.386;12.516;2023-03-13T14:08:56;1.58;;;1.38;;
19747;SDS011;10032;51.386;12.516;2023-03-13T14:11:38;1.52;;;1.10;;
19747;SDS011;10032;51.386;12.516;2023-03-13T14:14:19;1.92;;;1.40;;
19747;SDS011;10032;51.386;12.516;2023-03-13T14:16:46;1.73;;;1.42;;
19747;SDS011;10032;51.386;12.516;2023-03-13T14:22:12;1.10;;;1.00;;
19747;SDS011;10032;51.386;12.516;2023-03-13T14:24:40;2.17;;;1.10;;
19747;SDS011;10032;51.386;12.516;2023-03-13T14:27:16;1.70;;;1.33;;
19747;SDS011;10032;51.386;12.516;2023-03-13T14:29:58;1.02;;;1.02;;
19747;SDS011;10032;51.386;12.516;2023-03-13T14:32:30;3.35;;;1.10;;
19747;SDS011;10032;51.386;12.516;2023-03-13T14:34:55;3.75;;;1.98;;
19747;SDS011;10032;51.386;12.516;2023-03-13T14:37:36;3.47;;;1.92;;
19747;SDS011;10032;51.386;12.516;2023-03-13T14:40:07;1.55;;;1.10;;
19747;SDS011;10032;51.386;12.516;2023-03-13T14:42:52;1.15;;;1.10;;
19747;SDS011;10032;51.386;12.516;2023-03-13T14:45:22;2.58;;;1.23;;
19747;SDS011;10032;51.386;12.516;2023-03-13T14:47:52;1.85;;;1.60;;
19747;SDS011;10032;51.386;12.516;2023-03-13T14:50:40;2.90;;;1.35;;
19747;SDS011;10032;51.386;12.516;2023-03-13T14:53:12;1.05;;;1.05;;
19747;SDS011;10032;51.386;12.516;2023-03-13T14:55:41;1.38;;;1.27;;
19747;SDS011;10032;51.386;12.516;2023-03-13T15:00:42;2.03;;;1.83;;
19747;SDS011;10032;51.386;12.516;2023-03-13T15:05:41;1.42;;;1.15;;
19747;SDS011;10032;51.386;12.516;2023-03-13T15:08:21;1.48;;;1.10;;
19747;SDS011;10032;51.386;12.516;2023-03-13T15:10:48;1.98;;;1.75;;
19747;SDS011;10032;51.386;12.516;2023-03-13T15:15:49;1.58;;;1.20;;
19747;SDS011;10032;51.386;12.516;2023-03-13T15:18:22;1.85;;;1.10;;
19747;SDS011;10032;51.386;12.516;2023-03-13T15:20:50;2.13;;;1.70;;
19747;SDS011;10032;51.386;12.516;2023-03-13T15:23:18;2.13;;;1.92;;
19747;SDS011;10032;51.386;12.516;2023-03-13T15:25:45;1.75;;;1.20;;
19747;SDS011;10032;51.386;12.516;2023-03-13T15:28:13;3.72;;;2.33;;
19747;SDS011;10032;51.386;12.516;2023-03-13T15:30:47;6.40;;;3.05;;
19747;SDS011;10032;51.386;12.516;2023-03-13T15:33:18;2.47;;;2.28;;
19747;SDS011;10032;51.386;12.516;2023-03-13T15:35:46;1.88;;;1.67;;
19747;SDS011;10032;51.386;12.516;2023-03-13T15:38:13;2.28;;;2.05;;
19747;SDS011;10032;51.386;12.516;2023-03-13T15:40:42;2.33;;;2.13;;
19747;SDS011;10032;51.386;12.516;2023-03-13T15:43:09;2.90;;;1.83;;
19747;SDS011;10032;51.386;12.516;2023-03-13T15:45:35;1.75;;;1.65;;
19747;SDS011;10032;51.386;12.516;2023-03-13T15:48:02;2.05;;;1.85;;
19747;SDS011;10032;51.386;12.516;2023-03-13T15:50:42;2.78;;;2.33;;
19747;SDS011;10032;51.386;12.516;2023-03-13T15:53:15;2.33;;;1.48;;
19747;SDS011;10032;51.386;12.516;2023-03-13T15:55:43;3.78;;;2.15;;
19747;SDS011;10032;51.386;12.516;2023-03-13T15:58:10;2.38;;;1.80;;
19747;SDS011;10032;51.386;12.516;2023-03-13T16:00:35;2.28;;;1.80;;
19747;SDS011;10032;51.386;12.516;2023-03-13T16:03:01;2.40;;;1.73;;
19747;SDS011;10032;51.386;12.516;2023-03-13T16:05:27;2.88;;;2.40;;
19747;SDS011;10032;51.386;12.516;2023-03-13T16:07:53;2.08;;;1.60;;
19747;SDS011;10032;51.386;12.516;2023-03-13T16:10:21;1.92;;;1.63;;
19747;SDS011;10032;51.386;12.516;2023-03-13T16:12:54;1.40;;;1.33;;
19747;SDS011;10032;51.386;12.516;2023-03-13T16:15:20;1.90;;;1.80;;
19747;SDS011;10032;51.386;12.516;2023-03-13T16:17:45;2.97;;;1.90;;
19747;SDS011;10032;51.386;12.516;2023-03-13T16:20:15;2.33;;;1.90;;
19747;SDS011;10032;51.386;12.516;2023-03-13T16:22:42;2.22;;;1.70;;
19747;SDS011;10032;51.386;12.516;2023-03-13T16:25:08;1.63;;;1.52;;
19747;SDS011;10032;51.386;12.516;2023-03-13T16:27:34;1.60;;;1.50;;
19747;SDS011;10032;51.386;12.516;2023-03-13T16:30:00;1.90;;;1.60;;